Adaville, Iowa
Current Conditions -  °F | °C
As of 8:15 AM on Sunday 21 Dec 2014 (Local Time) from KLRJ Reporting Station
Haze Haze  
Wind Chill: 27°   Ceiling: 300
Heat Index: 36°   Visibility: 1.2mi
Dew Point: 36°   Wind: 14mph
Humidity: 100%   Direction: 190°S
Pressure: 29.81"   Gusts: 22mph
Location:  42.7082°N, 96.485°W
Report Text: KLRJ 211415Z AUTO 19012G19KT 1 1/4SM BR OVC003 02/02 A2981 RMK AO2
Loading
Personal Weather Stations






























Interactive Weather Map New forecast layout! Learn more

10-Day Weather Forecast

Advertisements
Track Severe Weather on mobile